sensor_id;sensor_type;location;lat;lon;timestamp;P1;durP1;ratioP1;P2;durP2;ratioP2
48203;SDS011;33994;50.998;5.864;2022-08-11T00:00:05;3.60;;;2.08;;
48203;SDS011;33994;50.998;5.864;2022-08-11T00:02:55;5.32;;;2.45;;
48203;SDS011;33994;50.998;5.864;2022-08-11T00:05:51;4.05;;;2.13;;
48203;SDS011;33994;50.998;5.864;2022-08-11T00:08:38;2.83;;;2.05;;
48203;SDS011;33994;50.998;5.864;2022-08-11T00:11:31;3.80;;;2.58;;
48203;SDS011;33994;50.998;5.864;2022-08-11T00:14:26;4.82;;;2.13;;
48203;SDS011;33994;50.998;5.864;2022-08-11T00:17:13;6.53;;;2.53;;
48203;SDS011;33994;50.998;5.864;2022-08-11T00:20:10;3.30;;;2.28;;
48203;SDS011;33994;50.998;5.864;2022-08-11T00:23:08;6.45;;;2.40;;
48203;SDS011;33994;50.998;5.864;2022-08-11T00:25:55;2.80;;;2.15;;
48203;SDS011;33994;50.998;5.864;2022-08-11T00:28:41;5.03;;;2.65;;
48203;SDS011;33994;50.998;5.864;2022-08-11T00:31:28;4.82;;;2.00;;
48203;SDS011;33994;50.998;5.864;2022-08-11T00:34:16;3.15;;;2.22;;
48203;SDS011;33994;50.998;5.864;2022-08-11T00:37:09;3.83;;;2.45;;
48203;SDS011;33994;50.998;5.864;2022-08-11T00:39:55;7.15;;;2.80;;
48203;SDS011;33994;50.998;5.864;2022-08-11T00:45:44;5.95;;;2.25;;
48203;SDS011;33994;50.998;5.864;2022-08-11T00:58:24;3.42;;;2.22;;
48203;SDS011;33994;50.998;5.864;2022-08-11T01:01:44;4.88;;;2.25;;
48203;SDS011;33994;50.998;5.864;2022-08-11T01:10:44;4.43;;;2.35;;
48203;SDS011;33994;50.998;5.864;2022-08-11T01:17:34;4.40;;;2.90;;
48203;SDS011;33994;50.998;5.864;2022-08-11T01:27:01;5.03;;;2.67;;
48203;SDS011;33994;50.998;5.864;2022-08-11T01:30:09;4.53;;;2.67;;
48203;SDS011;33994;50.998;5.864;2022-08-11T01:36:46;6.43;;;3.10;;
48203;SDS011;33994;50.998;5.864;2022-08-11T01:40:11;8.07;;;2.90;;
48203;SDS011;33994;50.998;5.864;2022-08-11T01:46:49;5.55;;;2.40;;
48203;SDS011;33994;50.998;5.864;2022-08-11T01:49:46;8.05;;;2.78;;
48203;SDS011;33994;50.998;5.864;2022-08-11T01:53:00;4.95;;;2.55;;
48203;SDS011;33994;50.998;5.864;2022-08-11T02:12:09;4.82;;;2.60;;
48203;SDS011;33994;50.998;5.864;2022-08-11T02:15:07;5.20;;;2.75;;
48203;SDS011;33994;50.998;5.864;2022-08-11T02:18:03;6.75;;;2.95;;
48203;SDS011;33994;50.998;5.864;2022-08-11T02:20:55;6.43;;;2.47;;
48203;SDS011;33994;50.998;5.864;2022-08-11T02:24:02;4.25;;;2.92;;
48203;SDS011;33994;50.998;5.864;2022-08-11T02:27:05;4.22;;;2.30;;
48203;SDS011;33994;50.998;5.864;2022-08-11T02:32:57;3.63;;;2.58;;
48203;SDS011;33994;50.998;5.864;2022-08-11T02:36:07;7.47;;;2.88;;
48203;SDS011;33994;50.998;5.864;2022-08-11T02:38:58;5.82;;;2.90;;
48203;SDS011;33994;50.998;5.864;2022-08-11T02:41:57;6.78;;;3.10;;
48203;SDS011;33994;50.998;5.864;2022-08-11T02:55:01;4.88;;;3.15;;
48203;SDS011;33994;50.998;5.864;2022-08-11T02:57:52;6.70;;;2.83;;
48203;SDS011;33994;50.998;5.864;2022-08-11T03:00:50;5.60;;;2.75;;
48203;SDS011;33994;50.998;5.864;2022-08-11T03:03:52;5.47;;;2.58;;
48203;SDS011;33994;50.998;5.864;2022-08-11T03:06:57;6.72;;;3.40;;
48203;SDS011;33994;50.998;5.864;2022-08-11T03:09:52;5.40;;;3.45;;
48203;SDS011;33994;50.998;5.864;2022-08-11T03:13:07;4.88;;;3.40;;
48203;SDS011;33994;50.998;5.864;2022-08-11T03:16:50;5.70;;;3.33;;
48203;SDS011;33994;50.998;5.864;2022-08-11T03:19:56;4.95;;;3.15;;
48203;SDS011;33994;50.998;5.864;2022-08-11T03:26:23;7.45;;;2.92;;
48203;SDS011;33994;50.998;5.864;2022-08-11T03:35:23;6.75;;;3.88;;
48203;SDS011;33994;50.998;5.864;2022-08-11T03:38:09;8.27;;;3.40;;
48203;SDS011;33994;50.998;5.864;2022-08-11T03:41:05;8.10;;;3.50;;
48203;SDS011;33994;50.998;5.864;2022-08-11T03:50:31;7.88;;;3.50;;
48203;SDS011;33994;50.998;5.864;2022-08-11T04:00:16;6.13;;;3.40;;
48203;SDS011;33994;50.998;5.864;2022-08-11T04:25:28;12.88;;;4.25;;
48203;SDS011;33994;50.998;5.864;2022-08-11T04:34:57;8.68;;;3.40;;
48203;SDS011;33994;50.998;5.864;2022-08-11T04:48:13;6.82;;;3.63;;
48203;SDS011;33994;50.998;5.864;2022-08-11T04:59:03;10.43;;;4.32;;
48203;SDS011;33994;50.998;5.864;2022-08-11T05:05:41;8.50;;;4.07;;
48203;SDS011;33994;50.998;5.864;2022-08-11T05:09:11;7.50;;;4.00;;
48203;SDS011;33994;50.998;5.864;2022-08-11T05:15:05;8.55;;;4.53;;
48203;SDS011;33994;50.998;5.864;2022-08-11T05:18:16;9.85;;;4.18;;
48203;SDS011;33994;50.998;5.864;2022-08-11T05:21:24;9.88;;;4.40;;
48203;SDS011;33994;50.998;5.864;2022-08-11T05:24:41;9.00;;;4.07;;
48203;SDS011;33994;50.998;5.864;2022-08-11T05:28:04;8.75;;;4.82;;
48203;SDS011;33994;50.998;5.864;2022-08-11T05:31:11;10.55;;;5.55;;
48203;SDS011;33994;50.998;5.864;2022-08-11T05:34:33;8.52;;;4.82;;
48203;SDS011;33994;50.998;5.864;2022-08-11T05:37:43;13.65;;;5.53;;
48203;SDS011;33994;50.998;5.864;2022-08-11T05:40:48;10.48;;;5.00;;
48203;SDS011;33994;50.998;5.864;2022-08-11T05:43:53;12.10;;;5.38;;
48203;SDS011;33994;50.998;5.864;2022-08-11T05:46:59;15.18;;;5.07;;
48203;SDS011;33994;50.998;5.864;2022-08-11T05:50:03;7.97;;;4.57;;
48203;SDS011;33994;50.998;5.864;2022-08-11T05:53:12;13.52;;;4.95;;
48203;SDS011;33994;50.998;5.864;2022-08-11T05:56:17;10.48;;;4.75;;
48203;SDS011;33994;50.998;5.864;2022-08-11T05:59:03;9.77;;;4.67;;
48203;SDS011;33994;50.998;5.864;2022-08-11T06:01:49;8.90;;;5.07;;
48203;SDS011;33994;50.998;5.864;2022-08-11T06:04:35;8.38;;;5.25;;
48203;SDS011;33994;50.998;5.864;2022-08-11T06:07:26;10.35;;;4.78;;
48203;SDS011;33994;50.998;5.864;2022-08-11T06:10:34;12.00;;;4.68;;
48203;SDS011;33994;50.998;5.864;2022-08-11T06:13:21;15.95;;;4.90;;
48203;SDS011;33994;50.998;5.864;2022-08-11T06:16:09;8.35;;;4.38;;
48203;SDS011;33994;50.998;5.864;2022-08-11T06:18:58;9.70;;;4.88;;
48203;SDS011;33994;50.998;5.864;2022-08-11T06:21:44;9.50;;;4.45;;
48203;SDS011;33994;50.998;5.864;2022-08-11T06:24:31;11.20;;;4.30;;
48203;SDS011;33994;50.998;5.864;2022-08-11T06:27:19;12.20;;;4.95;;
48203;SDS011;33994;50.998;5.864;2022-08-11T06:30:06;11.45;;;4.50;;
48203;SDS011;33994;50.998;5.864;2022-08-11T06:32:56;10.20;;;4.03;;
48203;SDS011;33994;50.998;5.864;2022-08-11T06:38:52;11.07;;;4.22;;
48203;SDS011;33994;50.998;5.864;2022-08-11T06:41:51;15.25;;;4.57;;
48203;SDS011;33994;50.998;5.864;2022-08-11T06:44:57;13.20;;;4.78;;
48203;SDS011;33994;50.998;5.864;2022-08-11T06:47:51;6.60;;;4.28;;
48203;SDS011;33994;50.998;5.864;2022-08-11T06:50:37;8.45;;;4.10;;
48203;SDS011;33994;50.998;5.864;2022-08-11T06:56:39;11.18;;;4.20;;
48203;SDS011;33994;50.998;5.864;2022-08-11T06:59:43;7.43;;;3.65;;
48203;SDS011;33994;50.998;5.864;2022-08-11T07:02:52;6.50;;;3.38;;
48203;SDS011;33994;50.998;5.864;2022-08-11T07:06:04;7.78;;;3.83;;
48203;SDS011;33994;50.998;5.864;2022-08-11T07:09:23;8.77;;;3.42;;
48203;SDS011;33994;50.998;5.864;2022-08-11T07:12:50;5.40;;;3.08;;
48203;SDS011;33994;50.998;5.864;2022-08-11T07:15:58;10.70;;;3.45;;
48203;SDS011;33994;50.998;5.864;2022-08-11T07:18:44;9.60;;;2.92;;
48203;SDS011;33994;50.998;5.864;2022-08-11T07:21:48;6.85;;;2.85;;
48203;SDS011;33994;50.998;5.864;2022-08-11T07:25:02;7.68;;;3.33;;
48203;SDS011;33994;50.998;5.864;2022-08-11T07:28:17;7.38;;;3.10;;
48203;SDS011;33994;50.998;5.864;2022-08-11T07:34:31;8.10;;;2.90;;
48203;SDS011;33994;50.998;5.864;2022-08-11T07:37:19;9.02;;;3.63;;
48203;SDS011;33994;50.998;5.864;2022-08-11T07:40:07;5.15;;;3.00;;
48203;SDS011;33994;50.998;5.864;2022-08-11T07:42:54;7.18;;;3.00;;
48203;SDS011;33994;50.998;5.864;2022-08-11T07:45:41;10.15;;;3.40;;
48203;SDS011;33994;50.998;5.864;2022-08-11T07:48:46;15.20;;;3.20;;
48203;SDS011;33994;50.998;5.864;2022-08-11T07:51:49;9.05;;;3.42;;
48203;SDS011;33994;50.998;5.864;2022-08-11T07:54:53;10.02;;;3.20;;
48203;SDS011;33994;50.998;5.864;2022-08-11T07:57:42;7.05;;;3.55;;
48203;SDS011;33994;50.998;5.864;2022-08-11T08:00:47;10.90;;;3.03;;
48203;SDS011;33994;50.998;5.864;2022-08-11T08:03:52;12.25;;;3.55;;
48203;SDS011;33994;50.998;5.864;2022-08-11T08:06:56;11.65;;;3.45;;
48203;SDS011;33994;50.998;5.864;2022-08-11T08:10:00;7.80;;;3.20;;
48203;SDS011;33994;50.998;5.864;2022-08-11T08:13:05;9.57;;;2.97;;
48203;SDS011;33994;50.998;5.864;2022-08-11T08:16:08;12.25;;;3.55;;
48203;SDS011;33994;50.998;5.864;2022-08-11T08:19:14;9.45;;;3.20;;
48203;SDS011;33994;50.998;5.864;2022-08-11T08:22:01;9.95;;;3.38;;
48203;SDS011;33994;50.998;5.864;2022-08-11T08:24:47;7.13;;;2.60;;
48203;SDS011;33994;50.998;5.864;2022-08-11T08:27:36;11.07;;;3.05;;
48203;SDS011;33994;50.998;5.864;2022-08-11T08:30:26;4.75;;;2.63;;
48203;SDS011;33994;50.998;5.864;2022-08-11T08:33:33;5.50;;;2.58;;
48203;SDS011;33994;50.998;5.864;2022-08-11T08:36:22;12.40;;;3.20;;
48203;SDS011;33994;50.998;5.864;2022-08-11T08:39:09;12.65;;;3.20;;
48203;SDS011;33994;50.998;5.864;2022-08-11T08:41:56;11.32;;;2.72;;
48203;SDS011;33994;50.998;5.864;2022-08-11T08:44:48;13.95;;;3.17;;
48203;SDS011;33994;50.998;5.864;2022-08-11T08:47:40;9.65;;;3.85;;
48203;SDS011;33994;50.998;5.864;2022-08-11T08:50:34;9.30;;;2.63;;
48203;SDS011;33994;50.998;5.864;2022-08-11T08:53:39;7.22;;;2.80;;
48203;SDS011;33994;50.998;5.864;2022-08-11T08:56:28;9.38;;;2.92;;
48203;SDS011;33994;50.998;5.864;2022-08-11T08:59:19;10.85;;;2.97;;
48203;SDS011;33994;50.998;5.864;2022-08-11T09:02:07;8.93;;;2.88;;
48203;SDS011;33994;50.998;5.864;2022-08-11T09:04:55;5.35;;;2.58;;
48203;SDS011;33994;50.998;5.864;2022-08-11T09:07:42;9.50;;;3.13;;
48203;SDS011;33994;50.998;5.864;2022-08-11T09:10:30;12.57;;;2.97;;
48203;SDS011;33994;50.998;5.864;2022-08-11T09:13:15;9.73;;;3.88;;
48203;SDS011;33994;50.998;5.864;2022-08-11T09:16:02;7.10;;;2.95;;
48203;SDS011;33994;50.998;5.864;2022-08-11T09:18:50;13.05;;;3.20;;
48203;SDS011;33994;50.998;5.864;2022-08-11T09:21:40;5.80;;;3.15;;
48203;SDS011;33994;50.998;5.864;2022-08-11T09:24:27;9.60;;;2.88;;
48203;SDS011;33994;50.998;5.864;2022-08-11T09:27:30;8.68;;;2.60;;
48203;SDS011;33994;50.998;5.864;2022-08-11T09:30:16;7.28;;;2.90;;
48203;SDS011;33994;50.998;5.864;2022-08-11T09:33:03;5.28;;;2.63;;
48203;SDS011;33994;50.998;5.864;2022-08-11T09:35:50;8.90;;;3.08;;
48203;SDS011;33994;50.998;5.864;2022-08-11T09:38:37;8.32;;;3.38;;
48203;SDS011;33994;50.998;5.864;2022-08-11T09:41:40;8.25;;;2.95;;
48203;SDS011;33994;50.998;5.864;2022-08-11T09:44:29;8.68;;;2.53;;
48203;SDS011;33994;50.998;5.864;2022-08-11T09:47:36;6.28;;;2.80;;
48203;SDS011;33994;50.998;5.864;2022-08-11T09:50:23;4.03;;;2.53;;
48203;SDS011;33994;50.998;5.864;2022-08-11T09:53:09;6.47;;;2.58;;
48203;SDS011;33994;50.998;5.864;2022-08-11T09:55:56;4.65;;;2.85;;
48203;SDS011;33994;50.998;5.864;2022-08-11T09:58:42;6.55;;;2.60;;
48203;SDS011;33994;50.998;5.864;2022-08-11T10:01:29;5.10;;;3.00;;
48203;SDS011;33994;50.998;5.864;2022-08-11T10:04:19;8.57;;;2.58;;
48203;SDS011;33994;50.998;5.864;2022-08-11T10:07:15;5.72;;;2.75;;
48203;SDS011;33994;50.998;5.864;2022-08-11T10:10:02;6.57;;;2.75;;
48203;SDS011;33994;50.998;5.864;2022-08-11T10:12:50;5.10;;;2.70;;
48203;SDS011;33994;50.998;5.864;2022-08-11T10:15:44;7.38;;;3.22;;
48203;SDS011;33994;50.998;5.864;2022-08-11T10:18:39;7.88;;;3.08;;
48203;SDS011;33994;50.998;5.864;2022-08-11T10:24:23;6.05;;;2.50;;
48203;SDS011;33994;50.998;5.864;2022-08-11T10:27:26;7.47;;;2.92;;
48203;SDS011;33994;50.998;5.864;2022-08-11T10:30:13;8.13;;;2.50;;
48203;SDS011;33994;50.998;5.864;2022-08-11T10:33:16;7.68;;;2.58;;
48203;SDS011;33994;50.998;5.864;2022-08-11T10:36:21;5.13;;;2.22;;
48203;SDS011;33994;50.998;5.864;2022-08-11T10:39:07;5.82;;;2.42;;
48203;SDS011;33994;50.998;5.864;2022-08-11T10:41:53;9.63;;;2.35;;
48203;SDS011;33994;50.998;5.864;2022-08-11T10:44:57;6.40;;;2.33;;
48203;SDS011;33994;50.998;5.864;2022-08-11T10:47:45;4.25;;;2.20;;
48203;SDS011;33994;50.998;5.864;2022-08-11T10:50:29;3.15;;;2.25;;
48203;SDS011;33994;50.998;5.864;2022-08-11T10:53:39;3.13;;;2.33;;
48203;SDS011;33994;50.998;5.864;2022-08-11T10:56:50;4.38;;;2.50;;
48203;SDS011;33994;50.998;5.864;2022-08-11T10:59:55;10.48;;;2.35;;
48203;SDS011;33994;50.998;5.864;2022-08-11T11:02:43;5.13;;;2.40;;
48203;SDS011;33994;50.998;5.864;2022-08-11T11:05:29;3.65;;;2.55;;
48203;SDS011;33994;50.998;5.864;2022-08-11T11:08:15;8.15;;;2.78;;
48203;SDS011;33994;50.998;5.864;2022-08-11T11:11:24;3.60;;;2.22;;
48203;SDS011;33994;50.998;5.864;2022-08-11T11:14:31;6.75;;;2.28;;
48203;SDS011;33994;50.998;5.864;2022-08-11T11:17:42;5.45;;;2.60;;
48203;SDS011;33994;50.998;5.864;2022-08-11T11:23:42;7.00;;;2.70;;
48203;SDS011;33994;50.998;5.864;2022-08-11T11:29:40;4.18;;;2.55;;
48203;SDS011;33994;50.998;5.864;2022-08-11T11:35:59;6.88;;;2.30;;
48203;SDS011;33994;50.998;5.864;2022-08-11T11:38:50;3.22;;;2.13;;
48203;SDS011;33994;50.998;5.864;2022-08-11T11:41:39;3.50;;;2.25;;
48203;SDS011;33994;50.998;5.864;2022-08-11T11:44:26;5.65;;;2.33;;
48203;SDS011;33994;50.998;5.864;2022-08-11T11:47:14;3.85;;;2.17;;
48203;SDS011;33994;50.998;5.864;2022-08-11T11:50:03;5.60;;;2.50;;
48203;SDS011;33994;50.998;5.864;2022-08-11T11:52:51;6.47;;;2.55;;
48203;SDS011;33994;50.998;5.864;2022-08-11T11:55:38;7.57;;;2.92;;
48203;SDS011;33994;50.998;5.864;2022-08-11T11:58:25;6.05;;;2.28;;
48203;SDS011;33994;50.998;5.864;2022-08-11T12:01:30;3.13;;;2.30;;
48203;SDS011;33994;50.998;5.864;2022-08-11T12:04:17;5.18;;;2.00;;
48203;SDS011;33994;50.998;5.864;2022-08-11T12:07:04;6.10;;;2.30;;
48203;SDS011;33994;50.998;5.864;2022-08-11T12:10:09;7.03;;;2.50;;
48203;SDS011;33994;50.998;5.864;2022-08-11T12:12:55;6.68;;;2.38;;
48203;SDS011;33994;50.998;5.864;2022-08-11T12:16:03;4.72;;;1.92;;
48203;SDS011;33994;50.998;5.864;2022-08-11T12:18:49;5.07;;;2.60;;
48203;SDS011;33994;50.998;5.864;2022-08-11T12:24:45;4.47;;;2.13;;
48203;SDS011;33994;50.998;5.864;2022-08-11T12:27:49;5.18;;;2.50;;
48203;SDS011;33994;50.998;5.864;2022-08-11T12:30:36;8.18;;;2.40;;
48203;SDS011;33994;50.998;5.864;2022-08-11T12:33:24;3.55;;;2.33;;
48203;SDS011;33994;50.998;5.864;2022-08-11T12:36:10;4.18;;;2.13;;
48203;SDS011;33994;50.998;5.864;2022-08-11T12:38:59;3.75;;;2.30;;
48203;SDS011;33994;50.998;5.864;2022-08-11T12:41:47;7.60;;;2.30;;
48203;SDS011;33994;50.998;5.864;2022-08-11T12:44:50;5.28;;;2.10;;
48203;SDS011;33994;50.998;5.864;2022-08-11T12:48:06;3.75;;;2.40;;
48203;SDS011;33994;50.998;5.864;2022-08-11T12:51:12;4.75;;;2.22;;
48203;SDS011;33994;50.998;5.864;2022-08-11T12:54:28;4.88;;;2.40;;
48203;SDS011;33994;50.998;5.864;2022-08-11T13:00:40;6.68;;;2.17;;
48203;SDS011;33994;50.998;5.864;2022-08-11T13:03:43;8.88;;;2.55;;
48203;SDS011;33994;50.998;5.864;2022-08-11T13:06:47;9.13;;;2.65;;
48203;SDS011;33994;50.998;5.864;2022-08-11T13:09:34;9.35;;;2.40;;
48203;SDS011;33994;50.998;5.864;2022-08-11T13:12:20;4.75;;;2.30;;
48203;SDS011;33994;50.998;5.864;2022-08-11T13:15:25;5.97;;;2.80;;
48203;SDS011;33994;50.998;5.864;2022-08-11T13:18:10;5.07;;;2.58;;
48203;SDS011;33994;50.998;5.864;2022-08-11T13:21:06;2.40;;;1.98;;
48203;SDS011;33994;50.998;5.864;2022-08-11T13:23:52;6.57;;;2.33;;
48203;SDS011;33994;50.998;5.864;2022-08-11T13:26:39;8.10;;;2.97;;
48203;SDS011;33994;50.998;5.864;2022-08-11T13:29:26;3.88;;;2.22;;
48203;SDS011;33994;50.998;5.864;2022-08-11T13:32:13;4.68;;;2.30;;
48203;SDS011;33994;50.998;5.864;2022-08-11T13:35:00;4.95;;;2.60;;
48203;SDS011;33994;50.998;5.864;2022-08-11T13:37:46;4.80;;;2.10;;
48203;SDS011;33994;50.998;5.864;2022-08-11T13:40:32;8.18;;;3.05;;
48203;SDS011;33994;50.998;5.864;2022-08-11T13:43:18;4.77;;;2.47;;
48203;SDS011;33994;50.998;5.864;2022-08-11T13:46:05;4.80;;;2.35;;
48203;SDS011;33994;50.998;5.864;2022-08-11T13:49:03;8.15;;;2.45;;
48203;SDS011;33994;50.998;5.864;2022-08-11T13:51:51;5.97;;;2.38;;
48203;SDS011;33994;50.998;5.864;2022-08-11T13:54:39;5.40;;;2.60;;
48203;SDS011;33994;50.998;5.864;2022-08-11T13:57:26;5.22;;;2.15;;
48203;SDS011;33994;50.998;5.864;2022-08-11T14:00:16;3.83;;;2.45;;
48203;SDS011;33994;50.998;5.864;2022-08-11T14:03:02;8.43;;;2.45;;
48203;SDS011;33994;50.998;5.864;2022-08-11T14:05:55;5.03;;;2.67;;
48203;SDS011;33994;50.998;5.864;2022-08-11T14:08:43;7.22;;;2.53;;
48203;SDS011;33994;50.998;5.864;2022-08-11T14:11:29;3.90;;;2.30;;
48203;SDS011;33994;50.998;5.864;2022-08-11T14:14:33;3.72;;;2.65;;
48203;SDS011;33994;50.998;5.864;2022-08-11T14:20:06;8.52;;;2.85;;
48203;SDS011;33994;50.998;5.864;2022-08-11T14:22:54;11.00;;;2.33;;
48203;SDS011;33994;50.998;5.864;2022-08-11T14:25:39;13.13;;;2.70;;
48203;SDS011;33994;50.998;5.864;2022-08-11T14:28:46;5.38;;;2.60;;
48203;SDS011;33994;50.998;5.864;2022-08-11T14:31:33;4.97;;;2.45;;
48203;SDS011;33994;50.998;5.864;2022-08-11T14:34:23;4.75;;;2.78;;
48203;SDS011;33994;50.998;5.864;2022-08-11T14:37:14;6.00;;;2.55;;
48203;SDS011;33994;50.998;5.864;2022-08-11T14:40:04;6.38;;;2.53;;
48203;SDS011;33994;50.998;5.864;2022-08-11T14:43:12;7.47;;;3.05;;
48203;SDS011;33994;50.998;5.864;2022-08-11T14:46:12;3.80;;;2.70;;
48203;SDS011;33994;50.998;5.864;2022-08-11T14:49:15;7.38;;;3.25;;
48203;SDS011;33994;50.998;5.864;2022-08-11T14:52:05;6.72;;;2.85;;
48203;SDS011;33994;50.998;5.864;2022-08-11T14:54:53;5.20;;;2.80;;
48203;SDS011;33994;50.998;5.864;2022-08-11T14:57:57;3.78;;;2.70;;
48203;SDS011;33994;50.998;5.864;2022-08-11T15:03:30;4.82;;;2.67;;
48203;SDS011;33994;50.998;5.864;2022-08-11T15:06:16;9.38;;;3.17;;
48203;SDS011;33994;50.998;5.864;2022-08-11T15:09:02;9.43;;;3.10;;
48203;SDS011;33994;50.998;5.864;2022-08-11T15:11:49;3.22;;;2.58;;
48203;SDS011;33994;50.998;5.864;2022-08-11T15:14:59;6.18;;;2.50;;
48203;SDS011;33994;50.998;5.864;2022-08-11T15:18:04;4.85;;;2.80;;
48203;SDS011;33994;50.998;5.864;2022-08-11T15:20:51;5.78;;;2.97;;
48203;SDS011;33994;50.998;5.864;2022-08-11T15:23:55;6.68;;;2.50;;
48203;SDS011;33994;50.998;5.864;2022-08-11T15:26:57;7.20;;;2.60;;
48203;SDS011;33994;50.998;5.864;2022-08-11T15:30:20;8.02;;;2.67;;
48203;SDS011;33994;50.998;5.864;2022-08-11T15:33:25;8.43;;;2.85;;
48203;SDS011;33994;50.998;5.864;2022-08-11T15:36:29;7.55;;;2.72;;
48203;SDS011;33994;50.998;5.864;2022-08-11T15:43:12;6.38;;;2.17;;
48203;SDS011;33994;50.998;5.864;2022-08-11T15:46:27;4.63;;;2.50;;
48203;SDS011;33994;50.998;5.864;2022-08-11T15:49:22;6.45;;;3.00;;
48203;SDS011;33994;50.998;5.864;2022-08-11T15:52:15;6.72;;;2.50;;
48203;SDS011;33994;50.998;5.864;2022-08-11T15:55:05;3.00;;;2.50;;
48203;SDS011;33994;50.998;5.864;2022-08-11T15:57:52;4.95;;;2.42;;
48203;SDS011;33994;50.998;5.864;2022-08-11T16:00:58;6.28;;;2.80;;
48203;SDS011;33994;50.998;5.864;2022-08-11T16:04:05;9.38;;;2.80;;
48203;SDS011;33994;50.998;5.864;2022-08-11T16:07:00;7.75;;;3.03;;
48203;SDS011;33994;50.998;5.864;2022-08-11T16:09:54;4.80;;;3.13;;
48203;SDS011;33994;50.998;5.864;2022-08-11T16:12:56;4.18;;;2.78;;
48203;SDS011;33994;50.998;5.864;2022-08-11T16:15:59;6.90;;;2.90;;
48203;SDS011;33994;50.998;5.864;2022-08-11T16:18:59;5.88;;;3.10;;
48203;SDS011;33994;50.998;5.864;2022-08-11T16:21:48;10.10;;;2.70;;
48203;SDS011;33994;50.998;5.864;2022-08-11T16:24:36;7.75;;;3.10;;
48203;SDS011;33994;50.998;5.864;2022-08-11T16:27:27;5.93;;;3.35;;
48203;SDS011;33994;50.998;5.864;2022-08-11T16:30:16;7.43;;;3.05;;
48203;SDS011;33994;50.998;5.864;2022-08-11T16:33:02;9.65;;;3.30;;
48203;SDS011;33994;50.998;5.864;2022-08-11T16:35:49;8.38;;;3.40;;
48203;SDS011;33994;50.998;5.864;2022-08-11T16:38:54;7.95;;;2.70;;
48203;SDS011;33994;50.998;5.864;2022-08-11T16:41:41;8.02;;;3.50;;
48203;SDS011;33994;50.998;5.864;2022-08-11T16:44:45;10.32;;;3.20;;
48203;SDS011;33994;50.998;5.864;2022-08-11T16:47:47;9.10;;;3.30;;
48203;SDS011;33994;50.998;5.864;2022-08-11T16:50:33;4.78;;;3.25;;
48203;SDS011;33994;50.998;5.864;2022-08-11T16:53:21;7.15;;;3.35;;
48203;SDS011;33994;50.998;5.864;2022-08-11T16:56:07;11.63;;;3.17;;
48203;SDS011;33994;50.998;5.864;2022-08-11T16:58:55;6.55;;;3.60;;
48203;SDS011;33994;50.998;5.864;2022-08-11T17:01:59;6.72;;;3.42;;
48203;SDS011;33994;50.998;5.864;2022-08-11T17:04:49;7.50;;;3.47;;
48203;SDS011;33994;50.998;5.864;2022-08-11T17:07:55;8.60;;;5.32;;
48203;SDS011;33994;50.998;5.864;2022-08-11T17:11:02;6.10;;;3.33;;
48203;SDS011;33994;50.998;5.864;2022-08-11T17:14:10;6.43;;;2.72;;
48203;SDS011;33994;50.998;5.864;2022-08-11T17:16:58;7.25;;;3.13;;
48203;SDS011;33994;50.998;5.864;2022-08-11T17:19:47;3.88;;;3.35;;
48203;SDS011;33994;50.998;5.864;2022-08-11T17:22:35;6.78;;;3.50;;
48203;SDS011;33994;50.998;5.864;2022-08-11T17:25:39;5.15;;;3.10;;
48203;SDS011;33994;50.998;5.864;2022-08-11T17:28:26;4.63;;;3.60;;
48203;SDS011;33994;50.998;5.864;2022-08-11T17:31:14;5.65;;;3.00;;
48203;SDS011;33994;50.998;5.864;2022-08-11T17:34:17;8.07;;;3.22;;
48203;SDS011;33994;50.998;5.864;2022-08-11T17:37:20;8.40;;;2.88;;
48203;SDS011;33994;50.998;5.864;2022-08-11T17:40:08;7.32;;;3.50;;
48203;SDS011;33994;50.998;5.864;2022-08-11T17:42:56;10.70;;;3.65;;
48203;SDS011;33994;50.998;5.864;2022-08-11T17:46:02;12.82;;;4.75;;
48203;SDS011;33994;50.998;5.864;2022-08-11T17:49:06;13.85;;;3.83;;
48203;SDS011;33994;50.998;5.864;2022-08-11T17:51:54;4.97;;;3.38;;
48203;SDS011;33994;50.998;5.864;2022-08-11T17:54:58;8.55;;;3.67;;
48203;SDS011;33994;50.998;5.864;2022-08-11T17:58:01;13.90;;;4.03;;
48203;SDS011;33994;50.998;5.864;2022-08-11T18:01:05;4.95;;;3.03;;
48203;SDS011;33994;50.998;5.864;2022-08-11T18:03:52;7.93;;;3.08;;
48203;SDS011;33994;50.998;5.864;2022-08-11T18:09:25;4.90;;;3.47;;
48203;SDS011;33994;50.998;5.864;2022-08-11T18:12:28;5.43;;;3.25;;
48203;SDS011;33994;50.998;5.864;2022-08-11T18:15:31;6.10;;;3.30;;
48203;SDS011;33994;50.998;5.864;2022-08-11T18:18:34;8.55;;;3.40;;
48203;SDS011;33994;50.998;5.864;2022-08-11T18:21:37;9.70;;;3.20;;
48203;SDS011;33994;50.998;5.864;2022-08-11T18:24:48;5.43;;;3.53;;
48203;SDS011;33994;50.998;5.864;2022-08-11T18:27:54;10.77;;;3.75;;
48203;SDS011;33994;50.998;5.864;2022-08-11T18:30:58;7.70;;;3.03;;
48203;SDS011;33994;50.998;5.864;2022-08-11T18:34:05;4.82;;;2.97;;
48203;SDS011;33994;50.998;5.864;2022-08-11T18:37:12;6.15;;;3.45;;
48203;SDS011;33994;50.998;5.864;2022-08-11T18:40:23;12.00;;;3.75;;
48203;SDS011;33994;50.998;5.864;2022-08-11T18:43:28;6.32;;;3.30;;
48203;SDS011;33994;50.998;5.864;2022-08-11T18:49:43;5.85;;;3.50;;
48203;SDS011;33994;50.998;5.864;2022-08-11T18:52:50;14.07;;;5.22;;
48203;SDS011;33994;50.998;5.864;2022-08-11T18:55:55;8.32;;;3.58;;
48203;SDS011;33994;50.998;5.864;2022-08-11T18:58:59;6.88;;;3.10;;
48203;SDS011;33994;50.998;5.864;2022-08-11T19:02:05;10.27;;;3.65;;
48203;SDS011;33994;50.998;5.864;2022-08-11T19:05:10;5.78;;;3.45;;
48203;SDS011;33994;50.998;5.864;2022-08-11T19:08:15;6.32;;;3.50;;
48203;SDS011;33994;50.998;5.864;2022-08-11T19:11:21;8.30;;;3.63;;
48203;SDS011;33994;50.998;5.864;2022-08-11T19:14:26;8.13;;;3.50;;
48203;SDS011;33994;50.998;5.864;2022-08-11T19:17:32;9.30;;;3.67;;
48203;SDS011;33994;50.998;5.864;2022-08-11T19:20:39;15.02;;;3.72;;
48203;SDS011;33994;50.998;5.864;2022-08-11T19:23:46;11.35;;;3.70;;
48203;SDS011;33994;50.998;5.864;2022-08-11T19:26:54;8.52;;;3.45;;
48203;SDS011;33994;50.998;5.864;2022-08-11T19:29:57;13.55;;;3.90;;
48203;SDS011;33994;50.998;5.864;2022-08-11T19:33:02;8.73;;;3.72;;
48203;SDS011;33994;50.998;5.864;2022-08-11T19:36:05;7.32;;;3.75;;
48203;SDS011;33994;50.998;5.864;2022-08-11T19:39:09;12.93;;;3.95;;
48203;SDS011;33994;50.998;5.864;2022-08-11T19:42:14;8.70;;;4.20;;
48203;SDS011;33994;50.998;5.864;2022-08-11T19:45:18;8.35;;;3.47;;
48203;SDS011;33994;50.998;5.864;2022-08-11T19:48:21;5.97;;;3.55;;
48203;SDS011;33994;50.998;5.864;2022-08-11T19:51:25;7.07;;;3.92;;
48203;SDS011;33994;50.998;5.864;2022-08-11T19:54:31;4.93;;;3.90;;
48203;SDS011;33994;50.998;5.864;2022-08-11T19:57:36;8.07;;;3.50;;
48203;SDS011;33994;50.998;5.864;2022-08-11T20:00:41;10.32;;;3.22;;
48203;SDS011;33994;50.998;5.864;2022-08-11T20:03:44;8.95;;;4.10;;
48203;SDS011;33994;50.998;5.864;2022-08-11T20:06:48;11.93;;;4.05;;
48203;SDS011;33994;50.998;5.864;2022-08-11T20:09:53;16.35;;;4.45;;
48203;SDS011;33994;50.998;5.864;2022-08-11T20:13:01;12.55;;;4.22;;
48203;SDS011;33994;50.998;5.864;2022-08-11T20:16:04;9.75;;;4.40;;
48203;SDS011;33994;50.998;5.864;2022-08-11T20:19:09;11.80;;;3.88;;
48203;SDS011;33994;50.998;5.864;2022-08-11T20:22:13;5.82;;;3.67;;
48203;SDS011;33994;50.998;5.864;2022-08-11T20:25:17;7.00;;;3.90;;
48203;SDS011;33994;50.998;5.864;2022-08-11T20:28:25;10.80;;;4.00;;
48203;SDS011;33994;50.998;5.864;2022-08-11T20:31:28;8.30;;;4.10;;
48203;SDS011;33994;50.998;5.864;2022-08-11T20:34:33;7.82;;;3.80;;
48203;SDS011;33994;50.998;5.864;2022-08-11T20:37:38;7.97;;;3.67;;
48203;SDS011;33994;50.998;5.864;2022-08-11T20:40:42;11.27;;;4.55;;
48203;SDS011;33994;50.998;5.864;2022-08-11T20:43:47;12.60;;;3.80;;
48203;SDS011;33994;50.998;5.864;2022-08-11T20:46:53;6.45;;;3.90;;
48203;SDS011;33994;50.998;5.864;2022-08-11T20:49:57;7.80;;;4.07;;